sensor_id;sensor_type;location;lat;lon;timestamp;temperature;humidity
14798;DHT22;7490;63.708;20.368;2023-05-16T00:01:47;11.10;85.00
14798;DHT22;7490;63.708;20.368;2023-05-16T00:04:13;11.10;85.00
14798;DHT22;7490;63.708;20.368;2023-05-16T00:06:39;11.10;85.10
14798;DHT22;7490;63.708;20.368;2023-05-16T00:09:05;11.20;85.20
14798;DHT22;7490;63.708;20.368;2023-05-16T00:11:30;11.20;85.40
14798;DHT22;7490;63.708;20.368;2023-05-16T00:13:56;11.20;85.50
14798;DHT22;7490;63.708;20.368;2023-05-16T00:16:21;11.30;85.60
14798;DHT22;7490;63.708;20.368;2023-05-16T00:18:50;11.30;85.50
14798;DHT22;7490;63.708;20.368;2023-05-16T00:21:17;11.40;85.50
14798;DHT22;7490;63.708;20.368;2023-05-16T00:23:42;11.40;85.30
14798;DHT22;7490;63.708;20.368;2023-05-16T00:26:08;11.50;85.30
14798;DHT22;7490;63.708;20.368;2023-05-16T00:28:34;11.50;85.20
14798;DHT22;7490;63.708;20.368;2023-05-16T00:31:00;11.50;85.10
14798;DHT22;7490;63.708;20.368;2023-05-16T00:33:26;11.50;85.00
14798;DHT22;7490;63.708;20.368;2023-05-16T00:35:51;11.60;85.00
14798;DHT22;7490;63.708;20.368;2023-05-16T00:38:18;11.60;84.90
14798;DHT22;7490;63.708;20.368;2023-05-16T00:40:44;11.60;84.90
14798;DHT22;7490;63.708;20.368;2023-05-16T00:43:11;11.50;84.80
14798;DHT22;7490;63.708;20.368;2023-05-16T00:45:37;11.50;84.80
14798;DHT22;7490;63.708;20.368;2023-05-16T00:48:03;11.50;85.50
14798;DHT22;7490;63.708;20.368;2023-05-16T00:50:28;11.50;84.80
14798;DHT22;7490;63.708;20.368;2023-05-16T00:52:54;11.50;84.80
14798;DHT22;7490;63.708;20.368;2023-05-16T00:55:20;11.40;84.80
14798;DHT22;7490;63.708;20.368;2023-05-16T00:57:46;11.40;84.80
14798;DHT22;7490;63.708;20.368;2023-05-16T01:00:13;11.40;85.00
14798;DHT22;7490;63.708;20.368;2023-05-16T01:02:42;11.40;85.10
14798;DHT22;7490;63.708;20.368;2023-05-16T01:05:08;11.40;85.10
14798;DHT22;7490;63.708;20.368;2023-05-16T01:07:34;11.40;85.20
14798;DHT22;7490;63.708;20.368;2023-05-16T01:10:02;11.40;85.20
14798;DHT22;7490;63.708;20.368;2023-05-16T01:15:17;11.40;85.20
14798;DHT22;7490;63.708;20.368;2023-05-16T01:20:58;11.40;85.20
14798;DHT22;7490;63.708;20.368;2023-05-16T01:26:21;11.50;84.90
14798;DHT22;7490;63.708;20.368;2023-05-16T01:28:48;11.50;84.80
14798;DHT22;7490;63.708;20.368;2023-05-16T01:31:15;11.50;84.70
14798;DHT22;7490;63.708;20.368;2023-05-16T01:33:41;11.50;84.70
14798;DHT22;7490;63.708;20.368;2023-05-16T01:36:16;11.50;84.70
14798;DHT22;7490;63.708;20.368;2023-05-16T01:41:38;11.50;84.50
14798;DHT22;7490;63.708;20.368;2023-05-16T01:44:10;11.50;84.40
14798;DHT22;7490;63.708;20.368;2023-05-16T01:46:39;11.50;84.30
14798;DHT22;7490;63.708;20.368;2023-05-16T01:52:08;11.50;84.40
14798;DHT22;7490;63.708;20.368;2023-05-16T01:54:37;11.50;84.50
14798;DHT22;7490;63.708;20.368;2023-05-16T01:57:08;11.50;84.30
14798;DHT22;7490;63.708;20.368;2023-05-16T01:59:35;11.50;84.40
14798;DHT22;7490;63.708;20.368;2023-05-16T02:02:01;11.50;84.60
14798;DHT22;7490;63.708;20.368;2023-05-16T02:04:27;11.50;84.60
14798;DHT22;7490;63.708;20.368;2023-05-16T02:06:52;11.50;84.70
14798;DHT22;7490;63.708;20.368;2023-05-16T02:09:18;11.60;84.70
14798;DHT22;7490;63.708;20.368;2023-05-16T02:11:44;11.60;84.60
14798;DHT22;7490;63.708;20.368;2023-05-16T02:14:11;11.60;84.60
14798;DHT22;7490;63.708;20.368;2023-05-16T02:16:37;11.60;84.60
14798;DHT22;7490;63.708;20.368;2023-05-16T02:19:02;11.60;84.80
14798;DHT22;7490;63.708;20.368;2023-05-16T02:21:28;11.60;84.80
14798;DHT22;7490;63.708;20.368;2023-05-16T02:23:54;11.70;84.90
14798;DHT22;7490;63.708;20.368;2023-05-16T02:26:19;11.70;84.90
14798;DHT22;7490;63.708;20.368;2023-05-16T02:28:46;11.70;84.90
14798;DHT22;7490;63.708;20.368;2023-05-16T02:31:28;11.70;85.00
14798;DHT22;7490;63.708;20.368;2023-05-16T02:33:53;11.80;85.20
14798;DHT22;7490;63.708;20.368;2023-05-16T02:36:19;11.90;85.10
14798;DHT22;7490;63.708;20.368;2023-05-16T02:38:45;11.90;85.10
14798;DHT22;7490;63.708;20.368;2023-05-16T02:41:11;11.90;85.20
14798;DHT22;7490;63.708;20.368;2023-05-16T02:43:37;12.00;85.30
14798;DHT22;7490;63.708;20.368;2023-05-16T02:46:23;12.00;85.40
14798;DHT22;7490;63.708;20.368;2023-05-16T02:48:49;12.00;85.50
14798;DHT22;7490;63.708;20.368;2023-05-16T02:51:15;12.10;85.40
14798;DHT22;7490;63.708;20.368;2023-05-16T02:53:41;12.10;85.40
14798;DHT22;7490;63.708;20.368;2023-05-16T02:56:06;12.20;85.40
14798;DHT22;7490;63.708;20.368;2023-05-16T02:58:32;12.20;85.30
14798;DHT22;7490;63.708;20.368;2023-05-16T03:00:58;12.20;85.40
14798;DHT22;7490;63.708;20.368;2023-05-16T03:03:24;12.30;86.20
14798;DHT22;7490;63.708;20.368;2023-05-16T03:05:49;12.50;87.30
14798;DHT22;7490;63.708;20.368;2023-05-16T03:08:16;12.80;87.90
14798;DHT22;7490;63.708;20.368;2023-05-16T03:10:42;13.20;87.70
14798;DHT22;7490;63.708;20.368;2023-05-16T03:13:08;13.50;87.20
14798;DHT22;7490;63.708;20.368;2023-05-16T03:15:33;13.90;86.50
14798;DHT22;7490;63.708;20.368;2023-05-16T03:17:59;14.30;85.70
14798;DHT22;7490;63.708;20.368;2023-05-16T03:20:25;14.70;84.60
14798;DHT22;7490;63.708;20.368;2023-05-16T03:22:50;15.10;83.40
14798;DHT22;7490;63.708;20.368;2023-05-16T03:25:16;15.50;82.20
14798;DHT22;7490;63.708;20.368;2023-05-16T03:27:41;15.90;81.10
14798;DHT22;7490;63.708;20.368;2023-05-16T03:30:08;16.30;79.90
14798;DHT22;7490;63.708;20.368;2023-05-16T03:32:33;16.70;78.60
14798;DHT22;7490;63.708;20.368;2023-05-16T03:34:59;17.10;77.20
14798;DHT22;7490;63.708;20.368;2023-05-16T03:37:26;17.50;75.90
14798;DHT22;7490;63.708;20.368;2023-05-16T03:39:52;18.00;74.60
14798;DHT22;7490;63.708;20.368;2023-05-16T03:42:18;18.10;72.90
14798;DHT22;7490;63.708;20.368;2023-05-16T03:44:44;18.10;71.60
14798;DHT22;7490;63.708;20.368;2023-05-16T03:47:10;17.90;71.00
14798;DHT22;7490;63.708;20.368;2023-05-16T03:49:35;17.80;70.40
14798;DHT22;7490;63.708;20.368;2023-05-16T03:52:03;17.60;70.50
14798;DHT22;7490;63.708;20.368;2023-05-16T03:54:28;17.30;70.40
14798;DHT22;7490;63.708;20.368;2023-05-16T03:56:54;17.10;70.70
14798;DHT22;7490;63.708;20.368;2023-05-16T03:59:20;16.90;71.30
14798;DHT22;7490;63.708;20.368;2023-05-16T04:01:46;16.70;71.60
14798;DHT22;7490;63.708;20.368;2023-05-16T04:04:12;16.50;71.70
14798;DHT22;7490;63.708;20.368;2023-05-16T04:06:38;16.30;71.80
14798;DHT22;7490;63.708;20.368;2023-05-16T04:09:04;16.10;72.20
14798;DHT22;7490;63.708;20.368;2023-05-16T04:11:31;15.90;72.50
14798;DHT22;7490;63.708;20.368;2023-05-16T04:13:57;15.80;73.00
14798;DHT22;7490;63.708;20.368;2023-05-16T04:16:23;15.70;73.40
14798;DHT22;7490;63.708;20.368;2023-05-16T04:18:49;15.60;73.60
14798;DHT22;7490;63.708;20.368;2023-05-16T04:21:16;15.60;74.00
14798;DHT22;7490;63.708;20.368;2023-05-16T04:23:42;15.60;74.10
14798;DHT22;7490;63.708;20.368;2023-05-16T04:26:07;15.70;74.20
14798;DHT22;7490;63.708;20.368;2023-05-16T04:28:33;15.70;74.20
14798;DHT22;7490;63.708;20.368;2023-05-16T04:30:59;15.70;74.30
14798;DHT22;7490;63.708;20.368;2023-05-16T04:33:25;15.80;74.30
14798;DHT22;7490;63.708;20.368;2023-05-16T04:35:50;15.80;74.20
14798;DHT22;7490;63.708;20.368;2023-05-16T04:38:17;16.00;74.20
14798;DHT22;7490;63.708;20.368;2023-05-16T04:40:43;16.00;73.60
14798;DHT22;7490;63.708;20.368;2023-05-16T04:43:08;16.10;73.40
14798;DHT22;7490;63.708;20.368;2023-05-16T04:45:34;16.20;73.30
14798;DHT22;7490;63.708;20.368;2023-05-16T04:48:00;16.30;73.00
14798;DHT22;7490;63.708;20.368;2023-05-16T04:50:26;16.50;72.60
14798;DHT22;7490;63.708;20.368;2023-05-16T04:52:51;16.60;72.10
14798;DHT22;7490;63.708;20.368;2023-05-16T04:55:17;16.70;71.80
14798;DHT22;7490;63.708;20.368;2023-05-16T04:57:43;16.80;71.50
14798;DHT22;7490;63.708;20.368;2023-05-16T05:00:09;16.80;71.10
14798;DHT22;7490;63.708;20.368;2023-05-16T05:02:37;16.90;70.90
14798;DHT22;7490;63.708;20.368;2023-05-16T05:05:03;17.00;70.80
14798;DHT22;7490;63.708;20.368;2023-05-16T05:07:30;17.10;71.30
14798;DHT22;7490;63.708;20.368;2023-05-16T05:09:55;17.20;70.30
14798;DHT22;7490;63.708;20.368;2023-05-16T05:12:21;17.40;70.30
14798;DHT22;7490;63.708;20.368;2023-05-16T05:14:47;17.80;70.80
14798;DHT22;7490;63.708;20.368;2023-05-16T05:17:13;18.50;70.50
14798;DHT22;7490;63.708;20.368;2023-05-16T05:19:38;19.10;68.10
14798;DHT22;7490;63.708;20.368;2023-05-16T05:22:04;19.30;66.10
14798;DHT22;7490;63.708;20.368;2023-05-16T05:24:30;19.40;65.10
14798;DHT22;7490;63.708;20.368;2023-05-16T05:26:56;19.40;65.10
14798;DHT22;7490;63.708;20.368;2023-05-16T05:29:21;19.70;64.70
14798;DHT22;7490;63.708;20.368;2023-05-16T05:31:47;19.90;63.50
14798;DHT22;7490;63.708;20.368;2023-05-16T05:34:13;20.00;63.50
14798;DHT22;7490;63.708;20.368;2023-05-16T05:36:38;20.50;63.20
14798;DHT22;7490;63.708;20.368;2023-05-16T05:39:04;21.70;62.50
14798;DHT22;7490;63.708;20.368;2023-05-16T05:41:30;23.10;59.60
14798;DHT22;7490;63.708;20.368;2023-05-16T05:43:56;24.50;56.40
14798;DHT22;7490;63.708;20.368;2023-05-16T05:46:23;25.70;54.00
14798;DHT22;7490;63.708;20.368;2023-05-16T05:48:50;26.80;51.90
14798;DHT22;7490;63.708;20.368;2023-05-16T05:51:16;28.00;49.90
14798;DHT22;7490;63.708;20.368;2023-05-16T05:53:42;29.00;48.00
14798;DHT22;7490;63.708;20.368;2023-05-16T05:56:07;29.70;45.70
14798;DHT22;7490;63.708;20.368;2023-05-16T05:58:33;30.00;44.40
14798;DHT22;7490;63.708;20.368;2023-05-16T06:00:59;30.60;43.50
14798;DHT22;7490;63.708;20.368;2023-05-16T06:03:25;31.10;42.50
14798;DHT22;7490;63.708;20.368;2023-05-16T06:05:50;31.60;41.30
14798;DHT22;7490;63.708;20.368;2023-05-16T06:08:16;32.00;40.20
14798;DHT22;7490;63.708;20.368;2023-05-16T06:10:42;32.30;39.20
14798;DHT22;7490;63.708;20.368;2023-05-16T06:13:07;32.60;38.30
14798;DHT22;7490;63.708;20.368;2023-05-16T06:15:33;32.60;37.60
14798;DHT22;7490;63.708;20.368;2023-05-16T06:17:59;32.50;36.40
14798;DHT22;7490;63.708;20.368;2023-05-16T06:20:25;32.30;37.10
14798;DHT22;7490;63.708;20.368;2023-05-16T06:22:50;32.40;36.90
14798;DHT22;7490;63.708;20.368;2023-05-16T06:25:16;32.60;36.40
14798;DHT22;7490;63.708;20.368;2023-05-16T06:27:42;32.80;35.90
14798;DHT22;7490;63.708;20.368;2023-05-16T06:30:08;33.10;35.70
14798;DHT22;7490;63.708;20.368;2023-05-16T06:32:33;33.40;35.00
14798;DHT22;7490;63.708;20.368;2023-05-16T06:34:59;33.20;34.10
14798;DHT22;7490;63.708;20.368;2023-05-16T06:37:25;32.50;34.10
14798;DHT22;7490;63.708;20.368;2023-05-16T06:39:51;31.80;34.90
14798;DHT22;7490;63.708;20.368;2023-05-16T06:42:16;31.60;35.30
14798;DHT22;7490;63.708;20.368;2023-05-16T06:44:42;31.50;35.20
14798;DHT22;7490;63.708;20.368;2023-05-16T06:47:08;31.10;35.10
14798;DHT22;7490;63.708;20.368;2023-05-16T06:49:33;30.80;35.50
14798;DHT22;7490;63.708;20.368;2023-05-16T06:51:59;30.40;35.80
14798;DHT22;7490;63.708;20.368;2023-05-16T06:54:25;30.20;36.30
14798;DHT22;7490;63.708;20.368;2023-05-16T06:56:50;30.60;36.30
14798;DHT22;7490;63.708;20.368;2023-05-16T06:59:16;31.30;35.30
14798;DHT22;7490;63.708;20.368;2023-05-16T07:01:41;31.50;34.60
14798;DHT22;7490;63.708;20.368;2023-05-16T07:04:07;31.60;34.50
14798;DHT22;7490;63.708;20.368;2023-05-16T07:06:33;31.60;34.50
14798;DHT22;7490;63.708;20.368;2023-05-16T07:08:58;31.70;35.20
14798;DHT22;7490;63.708;20.368;2023-05-16T07:11:24;32.10;35.20
14798;DHT22;7490;63.708;20.368;2023-05-16T07:13:49;32.60;34.60
14798;DHT22;7490;63.708;20.368;2023-05-16T07:16:15;32.70;34.30
14798;DHT22;7490;63.708;20.368;2023-05-16T07:18:41;32.60;34.10
14798;DHT22;7490;63.708;20.368;2023-05-16T07:21:07;32.60;34.40
14798;DHT22;7490;63.708;20.368;2023-05-16T07:23:32;32.80;34.40
14798;DHT22;7490;63.708;20.368;2023-05-16T07:25:58;33.30;33.90
14798;DHT22;7490;63.708;20.368;2023-05-16T07:28:24;33.70;33.20
14798;DHT22;7490;63.708;20.368;2023-05-16T07:30:50;34.00;32.80
14798;DHT22;7490;63.708;20.368;2023-05-16T07:33:15;34.10;32.20
14798;DHT22;7490;63.708;20.368;2023-05-16T07:35:41;33.70;31.70
14798;DHT22;7490;63.708;20.368;2023-05-16T07:38:07;33.30;32.00
14798;DHT22;7490;63.708;20.368;2023-05-16T07:40:33;33.00;32.40
14798;DHT22;7490;63.708;20.368;2023-05-16T07:42:59;32.50;32.60
14798;DHT22;7490;63.708;20.368;2023-05-16T07:45:24;32.10;33.30
14798;DHT22;7490;63.708;20.368;2023-05-16T07:47:50;32.00;33.70
14798;DHT22;7490;63.708;20.368;2023-05-16T07:50:15;32.20;33.50
14798;DHT22;7490;63.708;20.368;2023-05-16T07:52:41;32.40;32.90
14798;DHT22;7490;63.708;20.368;2023-05-16T07:55:07;32.10;32.60
14798;DHT22;7490;63.708;20.368;2023-05-16T07:57:33;31.80;32.80
14798;DHT22;7490;63.708;20.368;2023-05-16T07:59:59;32.00;32.90
14798;DHT22;7490;63.708;20.368;2023-05-16T08:02:25;32.10;32.60
14798;DHT22;7490;63.708;20.368;2023-05-16T08:04:55;32.20;32.90
14798;DHT22;7490;63.708;20.368;2023-05-16T08:07:22;32.40;32.70
14798;DHT22;7490;63.708;20.368;2023-05-16T08:09:48;32.80;32.40
14798;DHT22;7490;63.708;20.368;2023-05-16T08:12:14;33.00;32.00
14798;DHT22;7490;63.708;20.368;2023-05-16T08:14:39;32.90;31.90
14798;DHT22;7490;63.708;20.368;2023-05-16T08:17:05;32.80;32.00
14798;DHT22;7490;63.708;20.368;2023-05-16T08:19:31;32.30;32.00
14798;DHT22;7490;63.708;20.368;2023-05-16T08:21:57;31.70;32.40
14798;DHT22;7490;63.708;20.368;2023-05-16T08:24:23;31.40;33.10
14798;DHT22;7490;63.708;20.368;2023-05-16T08:26:49;31.40;32.90
14798;DHT22;7490;63.708;20.368;2023-05-16T08:29:15;31.70;32.30
14798;DHT22;7490;63.708;20.368;2023-05-16T08:31:40;32.00;32.00
14798;DHT22;7490;63.708;20.368;2023-05-16T08:34:06;32.50;31.70
14798;DHT22;7490;63.708;20.368;2023-05-16T08:36:33;33.10;31.00
14798;DHT22;7490;63.708;20.368;2023-05-16T08:39:00;32.90;30.20
14798;DHT22;7490;63.708;20.368;2023-05-16T08:41:25;32.60;30.60
14798;DHT22;7490;63.708;20.368;2023-05-16T08:43:51;32.60;30.30
14798;DHT22;7490;63.708;20.368;2023-05-16T08:46:21;32.30;30.00
14798;DHT22;7490;63.708;20.368;2023-05-16T08:48:51;31.80;30.50
14798;DHT22;7490;63.708;20.368;2023-05-16T08:51:18;31.20;31.30
14798;DHT22;7490;63.708;20.368;2023-05-16T08:53:49;30.60;31.80
14798;DHT22;7490;63.708;20.368;2023-05-16T08:56:16;29.90;32.30
14798;DHT22;7490;63.708;20.368;2023-05-16T08:58:43;29.00;33.30
14798;DHT22;7490;63.708;20.368;2023-05-16T09:01:09;28.30;34.10
14798;DHT22;7490;63.708;20.368;2023-05-16T09:03:36;27.50;34.70
14798;DHT22;7490;63.708;20.368;2023-05-16T09:06:04;26.70;35.40
14798;DHT22;7490;63.708;20.368;2023-05-16T09:08:31;26.10;36.30
14798;DHT22;7490;63.708;20.368;2023-05-16T09:10:56;25.60;36.80
14798;DHT22;7490;63.708;20.368;2023-05-16T09:13:23;25.20;37.20
14798;DHT22;7490;63.708;20.368;2023-05-16T09:16:14;24.90;37.60
14798;DHT22;7490;63.708;20.368;2023-05-16T09:18:43;24.50;38.00
14798;DHT22;7490;63.708;20.368;2023-05-16T09:21:10;24.20;38.40
14798;DHT22;7490;63.708;20.368;2023-05-16T09:23:36;24.00;38.60
14798;DHT22;7490;63.708;20.368;2023-05-16T09:26:03;23.70;38.90
14798;DHT22;7490;63.708;20.368;2023-05-16T09:28:29;23.40;38.80
14798;DHT22;7490;63.708;20.368;2023-05-16T09:30:56;23.10;39.10
14798;DHT22;7490;63.708;20.368;2023-05-16T09:33:26;22.70;39.80
14798;DHT22;7490;63.708;20.368;2023-05-16T09:35:57;22.50;40.30
14798;DHT22;7490;63.708;20.368;2023-05-16T09:38:24;22.40;40.60
14798;DHT22;7490;63.708;20.368;2023-05-16T09:40:51;22.40;40.80
14798;DHT22;7490;63.708;20.368;2023-05-16T09:43:16;22.50;41.00
14798;DHT22;7490;63.708;20.368;2023-05-16T09:45:47;22.50;41.20
14798;DHT22;7490;63.708;20.368;2023-05-16T09:48:13;22.50;41.20
14798;DHT22;7490;63.708;20.368;2023-05-16T09:50:40;22.50;41.60
14798;DHT22;7490;63.708;20.368;2023-05-16T09:53:12;22.50;41.60
14798;DHT22;7490;63.708;20.368;2023-05-16T09:55:38;22.40;41.70
14798;DHT22;7490;63.708;20.368;2023-05-16T09:58:03;22.30;41.60
14798;DHT22;7490;63.708;20.368;2023-05-16T10:00:31;22.20;41.70
14798;DHT22;7490;63.708;20.368;2023-05-16T10:02:59;22.00;42.00
14798;DHT22;7490;63.708;20.368;2023-05-16T10:05:29;21.80;42.40
14798;DHT22;7490;63.708;20.368;2023-05-16T10:07:56;21.60;42.80
14798;DHT22;7490;63.708;20.368;2023-05-16T10:10:22;21.50;43.30
14798;DHT22;7490;63.708;20.368;2023-05-16T10:12:49;21.40;43.60
14798;DHT22;7490;63.708;20.368;2023-05-16T10:15:16;21.40;43.80
14798;DHT22;7490;63.708;20.368;2023-05-16T10:17:44;21.40;44.00
14798;DHT22;7490;63.708;20.368;2023-05-16T10:20:13;21.30;44.10
14798;DHT22;7490;63.708;20.368;2023-05-16T10:22:42;21.10;44.50
14798;DHT22;7490;63.708;20.368;2023-05-16T10:25:23;20.90;44.90
14798;DHT22;7490;63.708;20.368;2023-05-16T10:27:50;20.80;45.30
14798;DHT22;7490;63.708;20.368;2023-05-16T10:30:17;20.90;45.60
14798;DHT22;7490;63.708;20.368;2023-05-16T10:32:44;20.90;45.70
14798;DHT22;7490;63.708;20.368;2023-05-16T10:35:10;20.90;45.70
14798;DHT22;7490;63.708;20.368;2023-05-16T10:37:37;20.90;45.80
14798;DHT22;7490;63.708;20.368;2023-05-16T10:40:05;20.90;45.90
14798;DHT22;7490;63.708;20.368;2023-05-16T10:42:32;20.90;46.70
14798;DHT22;7490;63.708;20.368;2023-05-16T10:45:17;20.90;45.90
14798;DHT22;7490;63.708;20.368;2023-05-16T10:48:03;20.60;46.30
14798;DHT22;7490;63.708;20.368;2023-05-16T10:50:37;20.20;46.80
14798;DHT22;7490;63.708;20.368;2023-05-16T10:53:19;19.90;47.30
14798;DHT22;7490;63.708;20.368;2023-05-16T11:06:26;19.30;49.20
14798;DHT22;7490;63.708;20.368;2023-05-16T11:14:08;19.00;50.20
14798;DHT22;7490;63.708;20.368;2023-05-16T11:16:35;18.90;50.40
14798;DHT22;7490;63.708;20.368;2023-05-16T11:19:07;18.90;50.70
14798;DHT22;7490;63.708;20.368;2023-05-16T11:24:30;18.80;51.50
14798;DHT22;7490;63.708;20.368;2023-05-16T11:26:58;18.80;51.50
14798;DHT22;7490;63.708;20.368;2023-05-16T11:29:25;18.90;51.70
14798;DHT22;7490;63.708;20.368;2023-05-16T11:31:52;18.90;51.80
14798;DHT22;7490;63.708;20.368;2023-05-16T11:34:18;19.00;51.80
14798;DHT22;7490;63.708;20.368;2023-05-16T11:36:43;19.00;51.90
14798;DHT22;7490;63.708;20.368;2023-05-16T11:39:10;18.90;52.00
14798;DHT22;7490;63.708;20.368;2023-05-16T11:41:37;19.00;52.20
14798;DHT22;7490;63.708;20.368;2023-05-16T11:44:03;19.00;52.30
14798;DHT22;7490;63.708;20.368;2023-05-16T11:46:32;19.10;52.50
14798;DHT22;7490;63.708;20.368;2023-05-16T11:48:58;19.10;52.70
14798;DHT22;7490;63.708;20.368;2023-05-16T11:51:23;19.20;52.80
14798;DHT22;7490;63.708;20.368;2023-05-16T11:53:49;19.30;52.80
14798;DHT22;7490;63.708;20.368;2023-05-16T11:56:15;19.40;52.80
14798;DHT22;7490;63.708;20.368;2023-05-16T11:58:41;19.50;52.80
14798;DHT22;7490;63.708;20.368;2023-05-16T12:01:07;19.60;52.80
14798;DHT22;7490;63.708;20.368;2023-05-16T12:03:34;19.80;52.70
14798;DHT22;7490;63.708;20.368;2023-05-16T12:06:01;20.00;52.50
14798;DHT22;7490;63.708;20.368;2023-05-16T12:08:27;20.20;52.20
14798;DHT22;7490;63.708;20.368;2023-05-16T12:10:53;20.30;51.90
14798;DHT22;7490;63.708;20.368;2023-05-16T12:13:20;20.50;51.80
14798;DHT22;7490;63.708;20.368;2023-05-16T12:15:46;20.50;51.70
14798;DHT22;7490;63.708;20.368;2023-05-16T12:18:13;20.50;51.60
14798;DHT22;7490;63.708;20.368;2023-05-16T12:20:39;20.50;51.70
14798;DHT22;7490;63.708;20.368;2023-05-16T12:23:09;20.50;51.80
14798;DHT22;7490;63.708;20.368;2023-05-16T12:25:36;20.50;52.00
14798;DHT22;7490;63.708;20.368;2023-05-16T12:28:06;20.60;52.20
14798;DHT22;7490;63.708;20.368;2023-05-16T12:30:33;20.60;52.50
14798;DHT22;7490;63.708;20.368;2023-05-16T12:33:00;20.60;52.50
14798;DHT22;7490;63.708;20.368;2023-05-16T12:35:31;20.70;52.40
14798;DHT22;7490;63.708;20.368;2023-05-16T12:37:58;20.80;52.20
14798;DHT22;7490;63.708;20.368;2023-05-16T12:40:27;20.80;52.10
14798;DHT22;7490;63.708;20.368;2023-05-16T12:42:54;20.90;51.70
14798;DHT22;7490;63.708;20.368;2023-05-16T12:45:20;20.80;51.50
14798;DHT22;7490;63.708;20.368;2023-05-16T12:47:48;20.70;51.70
14798;DHT22;7490;63.708;20.368;2023-05-16T12:50:15;20.60;51.60
14798;DHT22;7490;63.708;20.368;2023-05-16T12:52:53;20.50;51.80
14798;DHT22;7490;63.708;20.368;2023-05-16T12:55:20;20.30;51.90
14798;DHT22;7490;63.708;20.368;2023-05-16T12:57:47;20.30;52.00
14798;DHT22;7490;63.708;20.368;2023-05-16T13:00:16;20.30;52.00
14798;DHT22;7490;63.708;20.368;2023-05-16T13:02:43;20.30;52.00
14798;DHT22;7490;63.708;20.368;2023-05-16T13:05:10;20.30;52.00
14798;DHT22;7490;63.708;20.368;2023-05-16T13:07:36;20.40;52.10
14798;DHT22;7490;63.708;20.368;2023-05-16T13:10:11;20.50;52.20
14798;DHT22;7490;63.708;20.368;2023-05-16T13:12:40;20.80;52.20
14798;DHT22;7490;63.708;20.368;2023-05-16T13:15:07;21.00;51.80
14798;DHT22;7490;63.708;20.368;2023-05-16T13:17:34;21.20;52.10
14798;DHT22;7490;63.708;20.368;2023-05-16T13:20:00;21.40;51.10
14798;DHT22;7490;63.708;20.368;2023-05-16T13:22:27;21.50;50.80
14798;DHT22;7490;63.708;20.368;2023-05-16T13:24:53;21.70;50.60
14798;DHT22;7490;63.708;20.368;2023-05-16T13:27:19;21.80;50.30
14798;DHT22;7490;63.708;20.368;2023-05-16T13:29:44;21.80;50.00
14798;DHT22;7490;63.708;20.368;2023-05-16T13:32:10;21.90;50.10
14798;DHT22;7490;63.708;20.368;2023-05-16T13:34:36;21.90;50.00
14798;DHT22;7490;63.708;20.368;2023-05-16T13:37:02;21.90;49.90
14798;DHT22;7490;63.708;20.368;2023-05-16T13:39:28;21.90;49.70
14798;DHT22;7490;63.708;20.368;2023-05-16T13:41:53;21.80;49.60
14798;DHT22;7490;63.708;20.368;2023-05-16T13:44:19;21.80;49.80
14798;DHT22;7490;63.708;20.368;2023-05-16T13:46:46;21.70;49.70
14798;DHT22;7490;63.708;20.368;2023-05-16T13:49:12;21.70;49.80
14798;DHT22;7490;63.708;20.368;2023-05-16T13:51:38;21.60;49.80
14798;DHT22;7490;63.708;20.368;2023-05-16T13:54:04;21.60;49.90
14798;DHT22;7490;63.708;20.368;2023-05-16T13:56:29;21.50;49.80
14798;DHT22;7490;63.708;20.368;2023-05-16T13:58:55;21.50;49.90
14798;DHT22;7490;63.708;20.368;2023-05-16T14:01:21;21.40;50.10
14798;DHT22;7490;63.708;20.368;2023-05-16T14:03:47;21.40;50.10
14798;DHT22;7490;63.708;20.368;2023-05-16T14:06:13;21.30;50.30
14798;DHT22;7490;63.708;20.368;2023-05-16T14:08:38;21.30;50.40
14798;DHT22;7490;63.708;20.368;2023-05-16T14:11:04;21.30;50.40
14798;DHT22;7490;63.708;20.368;2023-05-16T14:13:30;21.30;50.30
14798;DHT22;7490;63.708;20.368;2023-05-16T14:15:56;21.40;50.30
14798;DHT22;7490;63.708;20.368;2023-05-16T14:18:22;21.30;50.50
14798;DHT22;7490;63.708;20.368;2023-05-16T14:20:47;21.20;50.50
14798;DHT22;7490;63.708;20.368;2023-05-16T14:23:15;20.90;50.80
14798;DHT22;7490;63.708;20.368;2023-05-16T14:25:40;20.70;51.20
14798;DHT22;7490;63.708;20.368;2023-05-16T14:28:06;20.30;51.70
14798;DHT22;7490;63.708;20.368;2023-05-16T14:30:32;19.90;52.10
14798;DHT22;7490;63.708;20.368;2023-05-16T14:32:58;19.40;52.70
14798;DHT22;7490;63.708;20.368;2023-05-16T14:35:24;18.90;53.60
14798;DHT22;7490;63.708;20.368;2023-05-16T14:37:49;18.40;54.70
14798;DHT22;7490;63.708;20.368;2023-05-16T14:40:15;18.00;55.70
14798;DHT22;7490;63.708;20.368;2023-05-16T14:42:41;17.60;56.70
14798;DHT22;7490;63.708;20.368;2023-05-16T14:45:07;17.30;57.50
14798;DHT22;7490;63.708;20.368;2023-05-16T14:47:33;17.00;59.20
14798;DHT22;7490;63.708;20.368;2023-05-16T14:49:58;16.70;59.90
14798;DHT22;7490;63.708;20.368;2023-05-16T14:52:25;16.40;61.10
14798;DHT22;7490;63.708;20.368;2023-05-16T14:54:51;16.20;62.70
14798;DHT22;7490;63.708;20.368;2023-05-16T14:57:16;16.00;63.90
14798;DHT22;7490;63.708;20.368;2023-05-16T14:59:42;15.90;65.10
14798;DHT22;7490;63.708;20.368;2023-05-16T15:02:07;15.80;66.30
14798;DHT22;7490;63.708;20.368;2023-05-16T15:04:33;15.60;67.40
14798;DHT22;7490;63.708;20.368;2023-05-16T15:06:59;15.40;68.40
14798;DHT22;7490;63.708;20.368;2023-05-16T15:09:24;15.20;69.80
14798;DHT22;7490;63.708;20.368;2023-05-16T15:11:50;15.00;71.10
14798;DHT22;7490;63.708;20.368;2023-05-16T15:14:16;14.80;72.20
14798;DHT22;7490;63.708;20.368;2023-05-16T15:16:41;14.60;73.10
14798;DHT22;7490;63.708;20.368;2023-05-16T15:19:07;14.50;74.70
14798;DHT22;7490;63.708;20.368;2023-05-16T15:21:33;14.40;76.50
14798;DHT22;7490;63.708;20.368;2023-05-16T15:23:58;14.40;78.30
14798;DHT22;7490;63.708;20.368;2023-05-16T15:26:25;14.30;79.60
14798;DHT22;7490;63.708;20.368;2023-05-16T15:28:50;14.40;80.80
14798;DHT22;7490;63.708;20.368;2023-05-16T15:31:16;14.40;81.70
14798;DHT22;7490;63.708;20.368;2023-05-16T15:33:42;14.40;82.50
14798;DHT22;7490;63.708;20.368;2023-05-16T15:36:09;14.50;83.80
14798;DHT22;7490;63.708;20.368;2023-05-16T15:38:35;14.60;84.70
14798;DHT22;7490;63.708;20.368;2023-05-16T15:41:01;14.70;85.80
14798;DHT22;7490;63.708;20.368;2023-05-16T15:43:30;14.70;85.50
14798;DHT22;7490;63.708;20.368;2023-05-16T15:45:56;14.80;85.90
14798;DHT22;7490;63.708;20.368;2023-05-16T15:48:21;14.80;86.50
14798;DHT22;7490;63.708;20.368;2023-05-16T15:50:47;14.90;87.10
14798;DHT22;7490;63.708;20.368;2023-05-16T15:53:13;15.00;87.50
14798;DHT22;7490;63.708;20.368;2023-05-16T15:55:38;15.00;87.90
14798;DHT22;7490;63.708;20.368;2023-05-16T15:58:04;15.10;88.30
14798;DHT22;7490;63.708;20.368;2023-05-16T16:00:30;15.30;88.60